createdAt,value
2019-03-23T00:01:07.576Z,2.70
2019-03-23T00:03:37.100Z,2.70
2019-03-23T00:06:06.602Z,2.70
2019-03-23T00:08:36.165Z,2.70
2019-03-23T00:11:05.824Z,2.60
2019-03-23T00:13:35.375Z,2.50
2019-03-23T00:16:04.938Z,2.40
2019-03-23T00:18:34.476Z,2.30
2019-03-23T00:21:04.052Z,2.20
2019-03-23T00:23:33.608Z,2.20
2019-03-23T00:26:03.142Z,2.10
2019-03-23T00:28:32.655Z,2.10
2019-03-23T00:31:02.244Z,2.10
2019-03-23T00:33:31.739Z,2.10
2019-03-23T00:36:01.266Z,2.10
2019-03-23T00:38:30.763Z,2.00
2019-03-23T00:41:00.838Z,2.00
2019-03-23T00:43:30.336Z,2.00
2019-03-23T00:45:59.870Z,2.00
2019-03-23T00:48:29.378Z,2.00
2019-03-23T00:50:58.914Z,2.00
2019-03-23T00:53:29.071Z,2.00
2019-03-23T00:55:59.771Z,2.00
2019-03-23T00:58:29.275Z,2.00
2019-03-23T01:00:58.806Z,2.00
2019-03-23T01:03:28.372Z,2.00
2019-03-23T01:05:57.985Z,2.00
2019-03-23T01:08:27.489Z,1.90
2019-03-23T01:10:57.026Z,1.80
2019-03-23T01:13:26.517Z,1.70
2019-03-23T01:15:56.057Z,1.70
2019-03-23T01:18:25.991Z,1.60
2019-03-23T01:20:55.523Z,1.60
2019-03-23T01:23:25.024Z,1.60
2019-03-23T01:25:54.558Z,1.50
2019-03-23T01:28:24.047Z,1.50
2019-03-23T01:30:53.585Z,1.60
2019-03-23T01:33:23.091Z,1.60
2019-03-23T01:35:52.621Z,1.60
2019-03-23T01:38:22.112Z,1.70
2019-03-23T01:40:51.642Z,1.80
2019-03-23T01:43:21.148Z,1.80
2019-03-23T01:45:50.685Z,1.90
2019-03-23T01:48:20.181Z,1.80
2019-03-23T01:50:49.710Z,1.70
2019-03-23T01:53:19.211Z,1.70
2019-03-23T01:55:48.742Z,1.60
2019-03-23T01:58:18.234Z,1.60
2019-03-23T02:00:47.776Z,1.50
2019-03-23T02:03:17.339Z,1.50
2019-03-23T02:05:46.870Z,1.60
2019-03-23T02:08:16.362Z,1.60
2019-03-23T02:10:45.967Z,1.70
2019-03-23T02:13:15.467Z,1.80
2019-03-23T02:15:45.011Z,1.90
2019-03-23T02:18:14.511Z,2.00
2019-03-23T02:20:44.116Z,2.20
2019-03-23T02:23:13.615Z,2.30
2019-03-23T02:25:43.146Z,2.40
2019-03-23T02:28:12.650Z,2.60
2019-03-23T02:30:42.198Z,2.80
2019-03-23T02:33:11.700Z,2.90
2019-03-23T02:35:41.239Z,3.00
2019-03-23T02:38:10.745Z,3.20
2019-03-23T02:40:40.304Z,3.40
2019-03-23T02:43:09.842Z,3.50
2019-03-23T02:45:39.394Z,3.60
2019-03-23T02:48:08.928Z,3.70
2019-03-23T02:50:38.472Z,3.90
2019-03-23T02:53:08.012Z,3.90
2019-03-23T02:55:37.515Z,4.00
2019-03-23T02:58:07.060Z,4.10
2019-03-23T03:00:36.559Z,4.30
2019-03-23T03:03:06.091Z,4.30
2019-03-23T03:05:35.592Z,4.40
2019-03-23T03:08:05.130Z,4.40
2019-03-23T03:10:39.440Z,4.50
2019-03-23T03:13:10.171Z,4.60
2019-03-23T03:15:39.672Z,4.60
2019-03-23T03:18:09.467Z,4.70
2019-03-23T03:20:39.437Z,4.70
2019-03-23T03:23:10.009Z,4.70
2019-03-23T03:25:39.534Z,4.80
2019-03-23T03:28:09.072Z,4.80
2019-03-23T03:30:39.556Z,4.80
2019-03-23T03:33:09.097Z,4.90
2019-03-23T03:35:38.622Z,5.00
2019-03-23T03:38:08.162Z,5.00
2019-03-23T03:40:37.664Z,5.10
2019-03-23T03:43:07.198Z,5.20
2019-03-23T03:45:36.698Z,5.40
2019-03-23T03:48:06.234Z,5.50
2019-03-23T03:50:35.722Z,5.60
2019-03-23T03:53:05.251Z,5.70
2019-03-23T03:55:37.471Z,5.70
2019-03-23T03:58:07.007Z,5.80
2019-03-23T04:00:36.511Z,5.80
2019-03-23T04:03:06.071Z,5.70
2019-03-23T04:05:38.540Z,5.80
2019-03-23T04:08:11.479Z,5.70
2019-03-23T04:10:39.187Z,5.80
2019-03-23T04:13:08.723Z,5.80
2019-03-23T04:15:38.293Z,5.80
2019-03-23T04:18:07.833Z,5.70
2019-03-23T04:20:37.327Z,5.70
2019-03-23T04:23:06.870Z,5.70
2019-03-23T04:25:36.370Z,5.70
2019-03-23T04:28:05.907Z,5.70
2019-03-23T04:30:35.433Z,5.70
2019-03-23T04:33:05.019Z,5.70
2019-03-23T04:35:35.530Z,5.60
2019-03-23T04:38:05.082Z,5.60
2019-03-23T04:40:34.575Z,5.60
2019-03-23T04:43:04.110Z,5.60
2019-03-23T04:45:33.610Z,5.50
2019-03-23T04:48:03.153Z,5.50
2019-03-23T04:50:32.715Z,5.50
2019-03-23T04:53:02.667Z,5.50
2019-03-23T04:55:32.166Z,5.50
2019-03-23T04:58:01.711Z,5.40
2019-03-23T05:00:31.213Z,5.40
2019-03-23T05:03:00.751Z,5.40
2019-03-23T05:05:30.258Z,5.40
2019-03-23T05:07:59.793Z,5.40
2019-03-23T05:10:29.282Z,5.40
2019-03-23T05:12:58.826Z,5.40
2019-03-23T05:15:28.801Z,5.40
2019-03-23T05:17:58.306Z,5.40
2019-03-23T05:20:29.471Z,5.40
2019-03-23T05:22:59.202Z,5.40
2019-03-23T05:25:29.774Z,5.40
2019-03-23T05:27:59.442Z,5.40
2019-03-23T05:30:28.984Z,5.40
2019-03-23T05:32:58.478Z,5.30
2019-03-23T05:35:28.086Z,5.40
2019-03-23T05:37:57.620Z,5.40
2019-03-23T05:40:27.297Z,5.30
2019-03-23T05:42:56.809Z,5.40
2019-03-23T05:45:26.350Z,5.40
2019-03-23T05:47:55.840Z,5.40
2019-03-23T05:50:25.522Z,5.50
2019-03-23T05:52:55.026Z,5.50
2019-03-23T05:55:24.567Z,5.50
2019-03-23T05:57:54.067Z,5.50
2019-03-23T06:00:23.604Z,5.50
2019-03-23T06:02:53.106Z,5.60
2019-03-23T06:05:24.603Z,5.70
2019-03-23T06:07:53.778Z,5.80
2019-03-23T06:10:23.322Z,5.80
2019-03-23T06:12:52.807Z,5.90
2019-03-23T06:15:22.350Z,5.90
2019-03-23T06:17:51.907Z,6.10
2019-03-23T06:20:21.458Z,6.20
2019-03-23T06:22:50.950Z,6.20
2019-03-23T06:25:20.474Z,6.30
2019-03-23T06:27:49.974Z,6.50
2019-03-23T06:30:20.483Z,6.50
2019-03-23T06:32:49.976Z,6.60
2019-03-23T06:35:19.500Z,6.70
2019-03-23T06:37:49.002Z,6.60
2019-03-23T06:40:18.530Z,6.70
2019-03-23T06:42:48.029Z,6.80
2019-03-23T06:45:17.577Z,6.90
2019-03-23T06:47:47.071Z,6.90
2019-03-23T06:50:16.666Z,7.00
2019-03-23T06:52:46.165Z,7.10
2019-03-23T06:55:15.698Z,7.40
2019-03-23T06:57:45.191Z,7.70
2019-03-23T07:00:18.350Z,8.20
2019-03-23T07:02:47.842Z,8.60
2019-03-23T07:05:17.382Z,9.10
2019-03-23T07:07:46.870Z,9.40
2019-03-23T07:10:16.472Z,9.50
2019-03-23T07:12:45.962Z,9.60
2019-03-23T07:15:20.355Z,9.70
2019-03-23T07:17:46.673Z,10.10
2019-03-23T07:20:16.291Z,10.30
2019-03-23T07:22:45.784Z,10.60
2019-03-23T07:25:15.391Z,10.40
2019-03-23T07:27:44.895Z,10.20
2019-03-23T07:30:17.451Z,10.20
2019-03-23T07:32:47.011Z,10.40
2019-03-23T07:35:16.696Z,10.40
2019-03-23T07:37:46.205Z,10.50
2019-03-23T07:40:15.794Z,10.90
2019-03-23T07:42:45.298Z,11.20
2019-03-23T07:45:15.878Z,11.30
2019-03-23T07:47:45.612Z,11.30
2019-03-23T07:50:15.611Z,11.50
2019-03-23T07:52:45.282Z,11.60
2019-03-23T07:55:16.007Z,12.10
2019-03-23T07:57:45.967Z,12.10
2019-03-23T08:00:17.605Z,12.00
2019-03-23T08:02:48.461Z,12.00
2019-03-23T08:05:17.952Z,12.30
2019-03-23T08:07:48.468Z,12.30
2019-03-23T08:10:32.122Z,12.20
2019-03-23T08:13:02.096Z,12.30
2019-03-23T08:15:31.770Z,13.10
2019-03-23T08:18:01.324Z,13.50
2019-03-23T08:20:30.810Z,13.60
2019-03-23T08:23:00.352Z,12.70
2019-03-23T08:25:29.852Z,12.20
2019-03-23T08:27:59.403Z,12.50
2019-03-23T08:30:28.906Z,13.40
2019-03-23T08:32:58.558Z,14.00
2019-03-23T08:35:28.058Z,13.60
2019-03-23T08:37:58.572Z,13.10
2019-03-23T08:40:29.051Z,13.60
2019-03-23T08:42:58.599Z,14.30
2019-03-23T08:45:28.094Z,14.90
2019-03-23T08:47:58.709Z,16.40
2019-03-23T08:50:28.197Z,17.40
2019-03-23T08:52:57.742Z,16.10
2019-03-23T08:55:27.250Z,15.00
2019-03-23T08:57:56.778Z,14.80
2019-03-23T09:00:26.301Z,14.60
2019-03-23T09:02:56.018Z,14.30
2019-03-23T09:05:25.511Z,15.30
2019-03-23T09:07:55.126Z,16.40
2019-03-23T09:10:24.627Z,17.40
2019-03-23T09:12:54.205Z,18.10
2019-03-23T09:15:23.699Z,18.60
2019-03-23T09:17:53.251Z,18.60
2019-03-23T09:20:22.755Z,18.00
2019-03-23T09:22:53.266Z,17.60
2019-03-23T09:25:22.766Z,17.50
2019-03-23T09:27:52.382Z,18.10
2019-03-23T09:30:21.884Z,17.50
2019-03-23T09:32:51.427Z,17.10
2019-03-23T09:35:20.930Z,17.60
2019-03-23T09:37:50.469Z,18.10
2019-03-23T09:40:19.973Z,18.20
2019-03-23T09:42:49.517Z,18.60
2019-03-23T09:45:19.010Z,19.40
2019-03-23T09:47:48.557Z,20.10
2019-03-23T09:50:18.082Z,20.50
2019-03-23T09:52:47.588Z,21.40
2019-03-23T09:55:17.134Z,21.40
2019-03-23T09:57:46.738Z,20.60
2019-03-23T10:00:16.294Z,20.60
2019-03-23T10:02:45.924Z,20.30
2019-03-23T10:05:15.542Z,19.70
2019-03-23T10:07:45.047Z,19.80
2019-03-23T10:10:21.846Z,20.30
2019-03-23T10:12:45.691Z,21.10
2019-03-23T10:15:15.239Z,21.00
2019-03-23T10:17:44.735Z,21.10
2019-03-23T10:20:15.262Z,21.00
2019-03-23T10:22:44.754Z,20.70
2019-03-23T10:25:14.307Z,21.00
2019-03-23T10:27:43.811Z,21.20
2019-03-23T10:30:13.685Z,22.00
2019-03-23T10:32:43.189Z,22.40
2019-03-23T10:35:12.801Z,23.00
2019-03-23T10:37:42.310Z,22.90
2019-03-23T10:40:12.096Z,22.50
2019-03-23T10:42:43.371Z,21.90
2019-03-23T10:45:13.155Z,22.50
2019-03-23T10:47:42.742Z,22.70
2019-03-23T10:50:12.468Z,22.50
2019-03-23T10:52:41.961Z,21.60
2019-03-23T10:55:11.526Z,21.80
2019-03-23T10:57:41.026Z,22.50
2019-03-23T11:00:13.241Z,23.00
2019-03-23T11:02:42.737Z,23.20
2019-03-23T11:05:12.626Z,23.80
2019-03-23T11:07:42.199Z,23.00
2019-03-23T11:10:13.281Z,23.60
2019-03-23T11:12:42.864Z,23.50
2019-03-23T11:15:12.643Z,24.10
2019-03-23T11:17:42.144Z,23.10
2019-03-23T11:20:13.036Z,22.60
2019-03-23T11:22:42.527Z,22.20
2019-03-23T11:25:12.500Z,22.50
2019-03-23T11:27:42.013Z,22.80
2019-03-23T11:30:13.275Z,23.00
2019-03-23T11:32:42.844Z,22.10
2019-03-23T11:35:12.556Z,22.30
2019-03-23T11:37:42.315Z,23.00
2019-03-23T11:40:12.442Z,23.10
2019-03-23T11:42:49.773Z,23.60
2019-03-23T11:45:13.242Z,24.70
2019-03-23T11:47:42.752Z,24.00
2019-03-23T11:50:12.627Z,23.20
2019-03-23T11:52:42.126Z,22.80
2019-03-23T11:55:11.899Z,22.80
2019-03-23T11:57:41.389Z,22.20
2019-03-23T12:00:14.345Z,22.40
2019-03-23T12:02:43.986Z,23.00
2019-03-23T12:05:14.059Z,23.20
2019-03-23T12:07:43.554Z,24.20
2019-03-23T12:10:14.545Z,24.20
2019-03-23T12:12:45.050Z,23.30
2019-03-23T12:15:15.169Z,22.90
2019-03-23T12:17:44.716Z,23.00
2019-03-23T12:20:15.815Z,22.90
2019-03-23T12:22:45.365Z,23.10
2019-03-23T12:25:14.863Z,23.00
2019-03-23T12:27:44.403Z,22.90
2019-03-23T12:30:16.147Z,22.80
2019-03-23T12:32:45.761Z,23.00
2019-03-23T12:35:15.365Z,22.70
2019-03-23T12:37:44.908Z,23.60
2019-03-23T12:40:14.545Z,23.70
2019-03-23T12:42:44.097Z,23.20
2019-03-23T12:45:13.832Z,23.00
2019-03-23T12:47:43.383Z,22.80
2019-03-23T12:50:14.215Z,22.90
2019-03-23T12:52:43.794Z,23.50
2019-03-23T12:55:13.259Z,23.10
2019-03-23T12:57:42.805Z,23.00
2019-03-23T13:00:14.647Z,23.20
2019-03-23T13:02:44.193Z,22.90
2019-03-23T13:05:14.762Z,23.00
2019-03-23T13:07:44.309Z,23.20
2019-03-23T13:10:14.546Z,22.60
2019-03-23T13:12:44.162Z,22.60
2019-03-23T13:15:15.795Z,22.60
2019-03-23T13:17:45.322Z,22.40
2019-03-23T13:20:14.991Z,22.40
2019-03-23T13:22:44.539Z,22.80
2019-03-23T13:25:14.039Z,23.40
2019-03-23T13:27:43.581Z,23.60
2019-03-23T13:30:15.688Z,23.10
2019-03-23T13:32:45.234Z,23.10
2019-03-23T13:35:14.728Z,22.80
2019-03-23T13:37:44.273Z,22.80
2019-03-23T13:40:14.111Z,22.10
2019-03-23T13:42:43.653Z,22.10
2019-03-23T13:45:13.294Z,22.30
2019-03-23T13:47:42.838Z,22.60
2019-03-23T13:50:13.177Z,23.00
2019-03-23T13:52:42.819Z,22.70
2019-03-23T13:55:21.333Z,22.40
2019-03-23T13:57:50.871Z,22.30
2019-03-23T14:00:21.341Z,22.40
2019-03-23T14:02:51.163Z,22.50
2019-03-23T14:05:20.663Z,22.50
2019-03-23T14:07:50.218Z,23.20
2019-03-23T14:10:19.722Z,23.40
2019-03-23T14:12:49.272Z,23.20
2019-03-23T14:15:18.817Z,22.80
2019-03-23T14:17:48.390Z,22.60
2019-03-23T14:20:18.038Z,22.60
2019-03-23T14:22:47.567Z,22.80
2019-03-23T14:25:17.639Z,22.50
2019-03-23T14:27:47.866Z,22.50
2019-03-23T14:30:17.441Z,22.10
2019-03-23T14:32:47.296Z,21.70
2019-03-23T14:35:16.922Z,21.20
2019-03-23T14:37:46.509Z,21.10
2019-03-23T14:40:16.182Z,21.10
2019-03-23T14:42:45.818Z,21.20
2019-03-23T14:45:16.315Z,21.20
2019-03-23T14:47:46.853Z,21.10
2019-03-23T14:50:16.406Z,21.10
2019-03-23T14:52:45.904Z,21.20
2019-03-23T14:55:15.442Z,21.10
2019-03-23T14:57:44.938Z,21.10
2019-03-23T15:00:16.078Z,21.10
2019-03-23T15:02:45.647Z,21.00
2019-03-23T15:05:15.191Z,20.70
2019-03-23T15:07:44.699Z,20.50
2019-03-23T15:10:14.490Z,20.60
2019-03-23T15:12:43.991Z,20.60
2019-03-23T15:15:13.543Z,20.60
2019-03-23T15:17:48.707Z,20.70
2019-03-23T15:20:14.208Z,20.60
2019-03-23T15:22:43.708Z,20.50
2019-03-23T15:25:14.214Z,20.20
2019-03-23T15:27:43.749Z,20.00
2019-03-23T15:30:13.426Z,19.90
2019-03-23T15:32:42.936Z,19.80
2019-03-23T15:35:12.481Z,19.70
2019-03-23T15:37:41.990Z,19.50
2019-03-23T15:40:11.771Z,19.40
2019-03-23T15:42:41.270Z,19.40
2019-03-23T15:45:12.342Z,19.30
2019-03-23T15:47:41.856Z,19.30
2019-03-23T15:50:11.926Z,19.30
2019-03-23T15:52:41.425Z,19.20
2019-03-23T15:55:11.122Z,19.10
2019-03-23T15:57:40.670Z,19.00
2019-03-23T16:00:11.967Z,19.00
2019-03-23T16:02:41.468Z,18.90
2019-03-23T16:05:11.158Z,18.90
2019-03-23T16:07:40.663Z,18.80
2019-03-23T16:10:10.446Z,18.70
2019-03-23T16:12:39.941Z,18.60
2019-03-23T16:15:11.313Z,18.50
2019-03-23T16:17:41.383Z,18.50
2019-03-23T16:20:12.059Z,18.40
2019-03-23T16:22:41.664Z,18.40
2019-03-23T16:25:12.850Z,18.30
2019-03-23T16:27:42.382Z,18.30
2019-03-23T16:30:12.720Z,18.10
2019-03-23T16:32:42.246Z,18.00
2019-03-23T16:35:11.749Z,18.10
2019-03-23T16:37:41.287Z,18.00
2019-03-23T16:40:11.232Z,17.90
2019-03-23T16:42:45.253Z,17.80
2019-03-23T16:45:12.018Z,17.70
2019-03-23T16:47:41.558Z,17.70
2019-03-23T16:50:11.290Z,17.60
2019-03-23T16:52:40.827Z,17.50
2019-03-23T16:55:11.935Z,17.30
2019-03-23T16:57:41.482Z,16.90
2019-03-23T17:00:13.394Z,16.60
2019-03-23T17:02:43.110Z,16.30
2019-03-23T17:05:14.189Z,16.10
2019-03-23T17:07:43.703Z,15.90
2019-03-23T17:10:13.445Z,15.70
2019-03-23T17:12:42.985Z,15.60
2019-03-23T17:15:12.563Z,15.40
2019-03-23T17:17:42.244Z,15.20
2019-03-23T17:20:12.076Z,15.00
2019-03-23T17:22:42.266Z,14.90
2019-03-23T17:25:11.778Z,14.70
2019-03-23T17:27:41.324Z,14.60
2019-03-23T17:30:11.866Z,14.40
2019-03-23T17:32:41.421Z,14.10
2019-03-23T17:35:12.230Z,13.80
2019-03-23T17:37:41.794Z,13.50
2019-03-23T17:40:11.358Z,13.30
2019-03-23T17:42:40.911Z,13.10
2019-03-23T17:45:12.115Z,12.90
2019-03-23T17:47:41.726Z,12.80
2019-03-23T17:50:11.913Z,12.60
2019-03-23T17:52:41.863Z,12.50
2019-03-23T17:55:11.502Z,12.40
2019-03-23T17:57:41.055Z,12.30
2019-03-23T18:00:12.645Z,12.20
2019-03-23T18:02:42.179Z,12.10
2019-03-23T18:05:12.301Z,11.90
2019-03-23T18:07:41.924Z,11.80
2019-03-23T18:10:11.838Z,11.80
2019-03-23T18:12:41.452Z,11.70
2019-03-23T18:15:12.723Z,11.60
2019-03-23T18:17:42.259Z,11.50
2019-03-23T18:20:12.126Z,11.50
2019-03-23T18:22:41.670Z,11.40
2019-03-23T18:25:11.557Z,11.30
2019-03-23T18:27:41.227Z,11.20
2019-03-23T18:30:37.951Z,11.10
2019-03-23T18:33:08.135Z,11.00
2019-03-23T18:35:37.680Z,10.90
2019-03-23T18:38:07.391Z,10.80
2019-03-23T18:40:37.100Z,10.80
2019-03-23T18:43:06.843Z,10.70
2019-03-23T18:45:36.456Z,10.70
2019-03-23T18:48:05.963Z,10.60
2019-03-23T18:50:35.511Z,10.60
2019-03-23T18:53:05.169Z,10.60
2019-03-23T18:55:35.746Z,10.50
2019-03-23T18:58:05.319Z,10.40
2019-03-23T19:00:39.166Z,10.40
2019-03-23T19:03:08.811Z,10.30
2019-03-23T19:05:38.562Z,10.20
2019-03-23T19:08:08.202Z,10.10
2019-03-23T19:10:37.811Z,10.10
2019-03-23T19:13:07.378Z,10.00
2019-03-23T19:15:38.696Z,10.00
2019-03-23T19:18:08.422Z,9.90
2019-03-23T19:20:38.287Z,9.90
2019-03-23T19:23:07.843Z,9.80
2019-03-23T19:25:39.003Z,9.80
2019-03-23T19:28:08.498Z,9.70
2019-03-23T19:30:38.028Z,9.60
2019-03-23T19:33:07.511Z,9.60
2019-03-23T19:35:37.045Z,9.60
2019-03-23T19:38:07.851Z,9.50
2019-03-23T19:40:37.770Z,9.40
2019-03-23T19:43:07.263Z,9.40
2019-03-23T19:45:36.803Z,9.40
2019-03-23T19:48:06.375Z,9.30
2019-03-23T19:50:35.905Z,9.30
2019-03-23T19:53:05.387Z,9.20
2019-03-23T19:55:35.990Z,9.20
2019-03-23T19:58:05.691Z,9.10
2019-03-23T20:00:35.230Z,9.00
2019-03-23T20:03:07.796Z,9.00
2019-03-23T20:05:37.270Z,8.90
2019-03-23T20:08:06.754Z,8.80
2019-03-23T20:10:36.634Z,8.70
2019-03-23T20:13:06.269Z,8.60
2019-03-23T20:15:36.191Z,8.60
2019-03-23T20:18:06.128Z,8.60
2019-03-23T20:20:35.673Z,8.50
2019-03-23T20:23:05.172Z,8.40
2019-03-23T20:25:34.778Z,8.40
2019-03-23T20:28:04.342Z,8.30
2019-03-23T20:30:33.886Z,8.30
2019-03-23T20:33:03.456Z,8.20
2019-03-23T20:35:32.995Z,8.10
2019-03-23T20:38:02.656Z,8.10
2019-03-23T20:40:32.218Z,8.10
2019-03-23T20:43:01.709Z,8.10
2019-03-23T20:45:31.286Z,8.00
2019-03-23T20:48:00.907Z,7.90
2019-03-23T20:50:31.624Z,7.90
2019-03-23T20:53:01.159Z,7.90
2019-03-23T20:55:32.814Z,7.80
2019-03-23T20:58:02.367Z,7.80
2019-03-23T21:00:32.895Z,7.70
2019-03-23T21:03:02.430Z,7.70
2019-03-23T21:05:34.171Z,7.60
2019-03-23T21:08:03.085Z,7.60
2019-03-23T21:10:32.586Z,7.50
2019-03-23T21:13:02.110Z,7.50
2019-03-23T21:15:31.685Z,7.50
2019-03-23T21:18:01.305Z,7.40
2019-03-23T21:20:30.802Z,7.50
2019-03-23T21:23:02.061Z,7.40
2019-03-23T21:25:31.556Z,7.40
2019-03-23T21:28:01.124Z,7.30
2019-03-23T21:30:30.774Z,7.30
2019-03-23T21:33:00.306Z,7.30
2019-03-23T21:35:29.815Z,7.20
2019-03-23T21:37:59.359Z,7.10
2019-03-23T21:40:28.863Z,7.00
2019-03-23T21:42:58.650Z,7.00
2019-03-23T21:45:28.147Z,7.00
2019-03-23T21:47:57.767Z,6.90
2019-03-23T21:50:27.286Z,6.80
2019-03-23T21:52:56.935Z,6.80
2019-03-23T21:55:26.430Z,6.70
2019-03-23T21:57:57.037Z,6.60
2019-03-23T22:00:31.404Z,6.60
2019-03-23T22:03:01.010Z,6.50
2019-03-23T22:05:30.586Z,6.40
2019-03-23T22:08:02.091Z,6.30
2019-03-23T22:10:31.584Z,6.30
2019-03-23T22:13:01.123Z,6.20
2019-03-23T22:15:32.346Z,6.10
2019-03-23T22:18:02.051Z,6.10
2019-03-23T22:20:31.546Z,6.00
2019-03-23T22:23:01.151Z,6.00
2019-03-23T22:25:30.639Z,5.90
2019-03-23T22:28:00.213Z,5.90
2019-03-23T22:30:30.618Z,5.80
2019-03-23T22:33:00.238Z,5.70
2019-03-23T22:35:29.978Z,5.60
2019-03-23T22:37:59.518Z,5.60
2019-03-23T22:40:29.083Z,5.50
2019-03-23T22:42:58.634Z,5.50
2019-03-23T22:45:28.133Z,5.40
2019-03-23T22:47:57.670Z,5.40
2019-03-23T22:50:27.270Z,5.30
2019-03-23T22:52:56.815Z,5.30
2019-03-23T22:55:27.282Z,5.30
2019-03-23T22:57:56.819Z,5.30
2019-03-23T23:00:33.983Z,5.20
2019-03-23T23:03:05.146Z,5.20
2019-03-23T23:05:34.874Z,5.10
2019-03-23T23:08:04.482Z,5.10
2019-03-23T23:10:33.974Z,5.10
2019-03-23T23:13:03.743Z,5.10
2019-03-23T23:15:33.269Z,5.10
2019-03-23T23:18:02.763Z,5.10
2019-03-23T23:20:32.395Z,5.00
2019-03-23T23:23:01.897Z,5.00
2019-03-23T23:25:31.630Z,4.90
2019-03-23T23:28:01.127Z,4.90
2019-03-23T23:30:30.742Z,4.80
2019-03-23T23:33:00.242Z,4.80
2019-03-23T23:35:29.994Z,4.70
2019-03-23T23:37:59.567Z,4.70
2019-03-23T23:40:29.303Z,4.60
2019-03-23T23:42:58.943Z,4.60
2019-03-23T23:45:28.626Z,4.60
2019-03-23T23:47:58.128Z,4.60
2019-03-23T23:50:27.664Z,4.70
2019-03-23T23:52:57.222Z,4.70
2019-03-23T23:55:26.859Z,4.70
2019-03-23T23:57:56.354Z,4.70
